createdAt,value
2019-05-11T05:00:29.122Z,100653.00
2019-05-11T05:02:58.820Z,100656.00
2019-05-11T05:05:28.576Z,100655.00
2019-05-11T05:08:08.994Z,100654.00
2019-05-11T05:10:30.095Z,100661.00
2019-05-11T05:13:10.299Z,100655.00
2019-05-11T05:15:50.509Z,100665.00
2019-05-11T05:18:20.281Z,100657.00
2019-05-11T05:20:49.981Z,100656.00
2019-05-11T05:23:19.665Z,100648.00
2019-05-11T05:25:49.752Z,100652.00
2019-05-11T05:28:19.559Z,100652.00
2019-05-11T05:30:49.210Z,100652.00
2019-05-11T05:33:18.968Z,100652.00
2019-05-11T05:35:48.674Z,100647.00
2019-05-11T05:38:18.369Z,100647.00
2019-05-11T05:40:48.082Z,100654.00
2019-05-11T05:43:25.949Z,100654.00
2019-05-11T05:45:49.116Z,100647.00
2019-05-11T05:48:18.845Z,100655.00
2019-05-11T05:50:48.660Z,100651.00
2019-05-11T05:53:18.399Z,100654.00
2019-05-11T05:55:48.070Z,100645.00
2019-05-11T05:58:17.726Z,100649.00
2019-05-11T06:00:47.414Z,100651.00
2019-05-11T06:03:17.100Z,100655.00
2019-05-11T06:05:46.753Z,100661.00
2019-05-11T06:08:16.491Z,100657.00
2019-05-11T06:10:46.149Z,100656.00
2019-05-11T06:13:15.840Z,100662.00
2019-05-11T06:15:45.631Z,100668.00
2019-05-11T06:18:15.438Z,100666.00
2019-05-11T06:20:45.070Z,100662.00
2019-05-11T06:23:15.087Z,100659.00
2019-05-11T06:25:44.807Z,100673.00
2019-05-11T06:28:14.807Z,100663.00
2019-05-11T06:30:44.492Z,100656.00
2019-05-11T06:33:14.174Z,100658.00
2019-05-11T06:35:43.857Z,100655.00
2019-05-11T06:38:13.574Z,100664.00
2019-05-11T06:40:43.310Z,100660.00
2019-05-11T06:43:13.028Z,100661.00
2019-05-11T06:45:43.082Z,100658.00
2019-05-11T06:48:12.878Z,100655.00
2019-05-11T06:50:42.577Z,100658.00
2019-05-11T06:53:12.272Z,100655.00
2019-05-11T06:55:41.997Z,100662.00
2019-05-11T06:58:11.717Z,100659.00
2019-05-11T07:01:00.691Z,100655.00
2019-05-11T07:03:30.366Z,100662.00
2019-05-11T07:06:00.028Z,100657.00
2019-05-11T07:08:29.739Z,100656.00
2019-05-11T07:10:59.420Z,100663.00
2019-05-11T07:13:29.137Z,100655.00
2019-05-11T07:15:58.788Z,100657.00
2019-05-11T07:18:28.502Z,100652.00
2019-05-11T07:20:58.213Z,100650.00
2019-05-11T07:23:27.945Z,100646.00
2019-05-11T07:26:00.116Z,100638.00
2019-05-11T07:28:29.137Z,100642.00
2019-05-11T07:30:58.871Z,100640.00
2019-05-11T07:33:28.835Z,100631.00
2019-05-11T07:35:58.570Z,100638.00
2019-05-11T07:38:28.301Z,100643.00
2019-05-11T07:40:58.349Z,100643.00
2019-05-11T07:43:28.845Z,100638.00
2019-05-11T07:45:58.981Z,100642.00
2019-05-11T07:48:28.664Z,100647.00
2019-05-11T07:50:58.596Z,100647.00
2019-05-11T07:53:28.272Z,100646.00
2019-05-11T07:55:57.991Z,100647.00
2019-05-11T07:58:28.607Z,100646.00
2019-05-11T08:00:58.411Z,100645.00
2019-05-11T08:03:28.524Z,100633.00
2019-05-11T08:05:58.399Z,100644.00
2019-05-11T08:08:28.448Z,100637.00
2019-05-11T08:10:58.775Z,100634.00
2019-05-11T08:13:28.824Z,100622.00
2019-05-11T08:15:58.507Z,100632.00
2019-05-11T08:18:28.480Z,100627.00
2019-05-11T08:20:58.425Z,100633.00
2019-05-11T08:23:28.697Z,100630.00
2019-05-11T08:25:58.453Z,100628.00
2019-05-11T08:28:28.863Z,100623.00
2019-05-11T08:30:58.651Z,100624.00
2019-05-11T08:33:28.537Z,100626.00
2019-05-11T08:35:58.453Z,100622.00
2019-05-11T08:38:48.276Z,100630.00
2019-05-11T08:41:18.671Z,100630.00
2019-05-11T08:43:48.436Z,100625.00
2019-05-11T08:46:18.725Z,100623.00
2019-05-11T08:48:48.666Z,100634.00
2019-05-11T08:51:18.836Z,100630.00
2019-05-11T08:53:48.642Z,100626.00
2019-05-11T08:56:19.025Z,100627.00
2019-05-11T08:59:08.378Z,100620.00
2019-05-11T09:01:48.817Z,100624.00
2019-05-11T09:04:18.505Z,100623.00
2019-05-11T09:07:07.964Z,100619.00
2019-05-11T09:09:38.141Z,100613.00
2019-05-11T09:12:08.233Z,100626.00
2019-05-11T09:14:38.723Z,100616.00
2019-05-11T09:17:08.873Z,100620.00
2019-05-11T09:19:38.944Z,100626.00
2019-05-11T09:22:08.923Z,100616.00
2019-05-11T09:24:38.836Z,100612.00
2019-05-11T09:27:08.513Z,100616.00
2019-05-11T09:29:38.701Z,100622.00
2019-05-11T09:32:08.971Z,100625.00
2019-05-11T09:34:38.707Z,100617.00
2019-05-11T09:37:08.408Z,100625.00
2019-05-11T09:39:38.563Z,100622.00
2019-05-11T09:42:08.328Z,100624.00
2019-05-11T09:44:38.191Z,100621.00
2019-05-11T09:47:08.533Z,100622.00
2019-05-11T09:49:45.729Z,100622.00
2019-05-11T09:52:09.689Z,100628.00
2019-05-11T09:54:39.351Z,100621.00
2019-05-11T09:57:09.035Z,100624.00
2019-05-11T09:59:38.752Z,100616.00
2019-05-11T10:02:08.419Z,100614.00
2019-05-11T10:04:38.257Z,100609.00
2019-05-11T10:07:08.988Z,100618.00
2019-05-11T10:09:38.860Z,100603.00
2019-05-11T10:12:08.520Z,100611.00
2019-05-11T10:14:38.229Z,100615.00
2019-05-11T10:17:07.959Z,100620.00
2019-05-11T10:19:39.613Z,100622.00
2019-05-11T10:22:09.101Z,100614.00
2019-05-11T10:24:38.807Z,100625.00
2019-05-11T10:27:08.619Z,100619.00
2019-05-11T10:29:38.432Z,100613.00
2019-05-11T10:32:08.151Z,100619.00
2019-05-11T10:34:38.622Z,100619.00
2019-05-11T10:37:08.683Z,100621.00
2019-05-11T10:39:38.485Z,100622.00
2019-05-11T10:42:08.711Z,100618.00
2019-05-11T10:44:38.661Z,100631.00
2019-05-11T10:47:08.566Z,100623.00
2019-05-11T10:49:38.442Z,100620.00
2019-05-11T10:52:09.817Z,100623.00
2019-05-11T10:54:40.165Z,100625.00
2019-05-11T10:57:10.195Z,100610.00
2019-05-11T10:59:39.951Z,100618.00
2019-05-11T11:02:09.967Z,100619.00
2019-05-11T11:04:39.672Z,100608.00
2019-05-11T11:07:09.435Z,100618.00
2019-05-11T11:09:39.189Z,100622.00
2019-05-11T11:12:09.163Z,100618.00
2019-05-11T11:14:38.840Z,100611.00
2019-05-11T11:17:08.905Z,100609.00
2019-05-11T11:19:38.647Z,100609.00
2019-05-11T11:22:35.061Z,100609.00
2019-05-11T11:24:39.883Z,100612.00
2019-05-11T11:27:10.928Z,100612.00
2019-05-11T11:29:40.616Z,100610.00
2019-05-11T11:32:10.315Z,100605.00
2019-05-11T11:34:39.988Z,100611.00
2019-05-11T11:37:09.679Z,100607.00
2019-05-11T11:39:39.372Z,100613.00
2019-05-11T11:42:09.297Z,100606.00
2019-05-11T11:44:38.957Z,100605.00
2019-05-11T11:47:08.842Z,100607.00
2019-05-11T11:49:38.576Z,100606.00
2019-05-11T11:52:08.390Z,100609.00
2019-05-11T11:54:38.664Z,100615.00
2019-05-11T11:57:08.459Z,100612.00
2019-05-11T11:59:38.660Z,100617.00
2019-05-11T12:02:08.737Z,100614.00
2019-05-11T12:04:38.923Z,100607.00
2019-05-11T12:07:08.759Z,100615.00
2019-05-11T12:09:38.443Z,100618.00
2019-05-11T12:12:08.460Z,100617.00
2019-05-11T12:14:38.569Z,100622.00
2019-05-11T12:17:11.017Z,100618.00
2019-05-11T12:19:39.967Z,100614.00
2019-05-11T12:22:09.661Z,100613.00
2019-05-11T12:24:39.331Z,100614.00
2019-05-11T12:27:09.099Z,100622.00
2019-05-11T12:29:38.796Z,100618.00
2019-05-11T12:32:12.426Z,100613.00
2019-05-11T12:34:42.140Z,100611.00
2019-05-11T12:37:12.462Z,100615.00
2019-05-11T12:39:42.158Z,100613.00
2019-05-11T12:42:11.847Z,100607.00
2019-05-11T12:44:41.582Z,100616.00
2019-05-11T12:47:21.566Z,100609.00
2019-05-11T12:49:42.751Z,100620.00
2019-05-11T12:52:13.032Z,100614.00
2019-05-11T12:54:42.787Z,100612.00
2019-05-11T12:57:12.512Z,100612.00
2019-05-11T12:59:42.198Z,100621.00
2019-05-11T13:02:11.913Z,100619.00
2019-05-11T13:04:41.921Z,100621.00
2019-05-11T13:07:11.948Z,100618.00
2019-05-11T13:09:41.623Z,100627.00
2019-05-11T13:12:11.370Z,100620.00
2019-05-11T13:14:41.063Z,100620.00
2019-05-11T13:17:10.725Z,100616.00
2019-05-11T13:19:40.452Z,100621.00
2019-05-11T13:22:10.108Z,100623.00
2019-05-11T13:24:39.834Z,100623.00
2019-05-11T13:27:09.515Z,100637.00
2019-05-11T13:29:39.212Z,100630.00
2019-05-11T13:32:09.228Z,100625.00
2019-05-11T13:34:38.964Z,100634.00
2019-05-11T13:37:08.637Z,100629.00
2019-05-11T13:39:38.365Z,100633.00
2019-05-11T13:42:08.271Z,100633.00
2019-05-11T13:44:38.449Z,100633.00
2019-05-11T13:47:08.640Z,100635.00
2019-05-11T13:49:38.335Z,100644.00
2019-05-11T13:52:08.577Z,100641.00
2019-05-11T13:54:38.407Z,100652.00
2019-05-11T13:57:08.193Z,100652.00
2019-05-11T13:59:38.448Z,100653.00
2019-05-11T14:02:10.901Z,100666.00
2019-05-11T14:04:39.806Z,100664.00
2019-05-11T14:07:09.484Z,100666.00
2019-05-11T14:09:39.131Z,100669.00
2019-05-11T14:12:09.097Z,100669.00
2019-05-11T14:14:38.791Z,100676.00
2019-05-11T14:17:08.490Z,100662.00
2019-05-11T14:19:38.969Z,100667.00
2019-05-11T14:22:08.834Z,100661.00
2019-05-11T14:24:38.463Z,100665.00
2019-05-11T14:27:08.579Z,100671.00
2019-05-11T14:29:38.607Z,100670.00
2019-05-11T14:32:08.664Z,100681.00
2019-05-11T14:34:38.803Z,100687.00
2019-05-11T14:37:08.949Z,100682.00
2019-05-11T14:39:38.643Z,100693.00
2019-05-11T14:42:08.377Z,100690.00
2019-05-11T14:44:38.118Z,100698.00
2019-05-11T14:47:08.470Z,100691.00
2019-05-11T14:49:38.269Z,100696.00
2019-05-11T14:52:08.407Z,100700.00
2019-05-11T14:54:38.369Z,100705.00
2019-05-11T14:57:08.214Z,100704.00
2019-05-11T14:59:38.018Z,100704.00
2019-05-11T15:02:28.613Z,100707.00
2019-05-11T15:04:58.674Z,100707.00
2019-05-11T15:07:28.793Z,100718.00
2019-05-11T15:09:58.739Z,100708.00
2019-05-11T15:12:28.846Z,100709.00
2019-05-11T15:14:59.115Z,100714.00
2019-05-11T15:17:28.859Z,100711.00
2019-05-11T15:19:58.555Z,100717.00
2019-05-11T15:22:28.786Z,100726.00
2019-05-11T15:24:58.887Z,100728.00
2019-05-11T15:27:28.998Z,100728.00
2019-05-11T15:29:58.905Z,100736.00
2019-05-11T15:32:28.669Z,100745.00
2019-05-11T15:34:58.301Z,100743.00
2019-05-11T15:37:28.542Z,100741.00
2019-05-11T15:40:13.483Z,100741.00
2019-05-11T15:42:43.751Z,100749.00
2019-05-11T15:45:14.588Z,100745.00
2019-05-11T15:47:44.360Z,100742.00
2019-05-11T15:50:15.502Z,100746.00
2019-05-11T15:52:45.240Z,100758.00
2019-05-11T15:55:15.729Z,100757.00
2019-05-11T15:57:48.070Z,100716.00
2019-05-11T16:00:17.993Z,100718.00
2019-05-11T16:02:49.029Z,100729.00
2019-05-11T16:05:19.697Z,100722.00
2019-05-11T16:07:49.684Z,100726.00
2019-05-11T16:10:20.647Z,100728.00
2019-05-11T16:12:50.382Z,100739.00
2019-05-11T16:15:20.485Z,100775.00
2019-05-11T16:17:50.623Z,100776.00
2019-05-11T16:20:20.481Z,100774.00
2019-05-11T16:22:50.251Z,100772.00
2019-05-11T16:25:20.308Z,100782.00
2019-05-11T16:27:50.154Z,100784.00
2019-05-11T16:30:21.510Z,100792.00
2019-05-11T16:32:51.597Z,100787.00
2019-05-11T16:35:21.489Z,100777.00
2019-05-11T16:37:51.356Z,100766.00
2019-05-11T16:40:21.488Z,100771.00
2019-05-11T16:42:51.335Z,100770.00
2019-05-11T16:45:23.899Z,100778.00
2019-05-11T16:47:52.771Z,100789.00
2019-05-11T16:50:22.419Z,100788.00
2019-05-11T16:52:52.124Z,100782.00
2019-05-11T16:55:21.799Z,100786.00
2019-05-11T16:57:51.476Z,100790.00
2019-05-11T17:00:21.944Z,100806.00
2019-05-11T17:02:51.886Z,100811.00
2019-05-11T17:05:26.863Z,100812.00
2019-05-11T17:07:52.966Z,100820.00
2019-05-11T17:10:22.671Z,100821.00
2019-05-11T17:12:52.342Z,100815.00
2019-05-11T17:15:22.785Z,100816.00
2019-05-11T17:17:52.515Z,100808.00
2019-05-11T17:20:22.290Z,100798.00
2019-05-11T17:22:53.954Z,100805.00
2019-05-11T17:25:23.858Z,100803.00
2019-05-11T17:27:53.584Z,100820.00
2019-05-11T17:30:23.474Z,100824.00
2019-05-11T17:32:53.213Z,100837.00
2019-05-11T17:35:23.180Z,100848.00
2019-05-11T17:37:52.974Z,100868.00
2019-05-11T17:40:23.641Z,100871.00
2019-05-11T17:42:54.127Z,100879.00
2019-05-11T17:45:24.331Z,100887.00
2019-05-11T17:47:54.056Z,100895.00
2019-05-11T17:50:23.789Z,100888.00
2019-05-11T17:52:53.529Z,100888.00
2019-05-11T17:55:23.194Z,100882.00
2019-05-11T17:57:54.030Z,100887.00
2019-05-11T18:00:24.193Z,100893.00
2019-05-11T18:02:53.904Z,100896.00
2019-05-11T18:05:42.883Z,100895.00
2019-05-11T18:08:12.593Z,100897.00
2019-05-11T18:10:42.593Z,100906.00
2019-05-11T18:13:12.331Z,100909.00
2019-05-11T18:15:42.050Z,100915.00
2019-05-11T18:18:11.722Z,100923.00
2019-05-11T18:20:41.417Z,100920.00
2019-05-11T18:23:11.204Z,100929.00
2019-05-11T18:25:40.898Z,100934.00
2019-05-11T18:28:14.008Z,100932.00
2019-05-11T18:30:42.048Z,100932.00
2019-05-11T18:33:11.816Z,100936.00
2019-05-11T18:35:41.810Z,100941.00
2019-05-11T18:38:11.817Z,100942.00
2019-05-11T18:40:41.492Z,100955.00
2019-05-11T18:43:11.260Z,100957.00
2019-05-11T18:45:40.961Z,100960.00
2019-05-11T18:48:10.625Z,100965.00
2019-05-11T18:50:40.335Z,100967.00
2019-05-11T18:53:10.018Z,100973.00
2019-05-11T18:55:39.682Z,100983.00
2019-05-11T18:58:09.688Z,100983.00
2019-05-11T19:00:39.380Z,100985.00
2019-05-11T19:03:09.123Z,100992.00
2019-05-11T19:05:38.823Z,100996.00
2019-05-11T19:08:08.544Z,100997.00
2019-05-11T19:10:38.542Z,101003.00
2019-05-11T19:13:08.249Z,101006.00
2019-05-11T19:15:38.850Z,101013.00
2019-05-11T19:18:08.760Z,101021.00
2019-05-11T19:20:45.699Z,101028.00
2019-05-11T19:23:09.895Z,101025.00
2019-05-11T19:25:39.628Z,101045.00
2019-05-11T19:28:09.409Z,101048.00
2019-05-11T19:30:39.124Z,101057.00
2019-05-11T19:33:11.178Z,101061.00
2019-05-11T19:35:40.272Z,101063.00
2019-05-11T19:38:10.063Z,101065.00
2019-05-11T19:40:40.054Z,101072.00
2019-05-11T19:43:09.753Z,101069.00
2019-05-11T19:45:42.236Z,101080.00
2019-05-11T19:48:10.932Z,101077.00
2019-05-11T19:50:41.127Z,101089.00
2019-05-11T19:53:10.910Z,101087.00
2019-05-11T19:55:40.649Z,101088.00
2019-05-11T19:58:10.381Z,101087.00
2019-05-11T20:00:40.363Z,101092.00
2019-05-11T20:03:10.075Z,101101.00
2019-05-11T20:05:39.877Z,101101.00
2019-05-11T20:08:09.891Z,101111.00
2019-05-11T20:10:39.590Z,101110.00
2019-05-11T20:13:09.335Z,101110.00
2019-05-11T20:15:39.002Z,101110.00
2019-05-11T20:18:08.746Z,101105.00
2019-05-11T20:20:38.452Z,101108.00
2019-05-11T20:23:08.137Z,101112.00
2019-05-11T20:25:58.183Z,101105.00
2019-05-11T20:28:28.619Z,101118.00
2019-05-11T20:30:58.859Z,101123.00
2019-05-11T20:33:28.649Z,101122.00
2019-05-11T20:35:58.328Z,101126.00
2019-05-11T20:38:28.175Z,101125.00
2019-05-11T20:40:57.973Z,101138.00
2019-05-11T20:43:28.018Z,101137.00
2019-05-11T20:45:57.735Z,101144.00
2019-05-11T20:48:27.846Z,101138.00
2019-05-11T20:50:57.827Z,101154.00
2019-05-11T20:53:28.757Z,101150.00
2019-05-11T20:55:58.567Z,101152.00
2019-05-11T20:58:30.093Z,101149.00
2019-05-11T21:01:00.090Z,101159.00
2019-05-11T21:03:29.817Z,101167.00
2019-05-11T21:05:59.550Z,101164.00
2019-05-11T21:08:29.231Z,101179.00
2019-05-11T21:10:58.887Z,101176.00
2019-05-11T21:13:28.580Z,101191.00
2019-05-11T21:15:59.284Z,101183.00
2019-05-11T21:18:28.961Z,101195.00
2019-05-11T21:20:58.617Z,101201.00
2019-05-11T21:23:28.973Z,101199.00
2019-05-11T21:25:58.899Z,101200.00
2019-05-11T21:28:30.680Z,101207.00
2019-05-11T21:31:00.197Z,101206.00
2019-05-11T21:33:29.894Z,101204.00
2019-05-11T21:36:00.729Z,101216.00
2019-05-11T21:38:31.831Z,101216.00
2019-05-11T21:41:02.227Z,101216.00
2019-05-11T21:43:31.890Z,101225.00
2019-05-11T21:46:01.597Z,101234.00
2019-05-11T21:48:31.398Z,101232.00
2019-05-11T21:51:01.095Z,101243.00
2019-05-11T21:53:30.759Z,101241.00
2019-05-11T21:56:00.490Z,101256.00
2019-05-11T21:58:49.441Z,101256.00
2019-05-11T22:01:20.532Z,101266.00
2019-05-11T22:03:50.239Z,101263.00
2019-05-11T22:06:19.898Z,101265.00
2019-05-11T22:08:50.868Z,101262.00
2019-05-11T22:11:20.657Z,101267.00
2019-05-11T22:13:50.389Z,101266.00
2019-05-11T22:16:20.052Z,101263.00
2019-05-11T22:18:49.744Z,101262.00
2019-05-11T22:21:19.431Z,101259.00
2019-05-11T22:23:50.732Z,101265.00
2019-05-11T22:26:20.699Z,101268.00
2019-05-11T22:28:50.426Z,101266.00
2019-05-11T22:31:20.130Z,101278.00
2019-05-11T22:33:50.122Z,101277.00
2019-05-11T22:36:20.129Z,101282.00
2019-05-11T22:38:49.821Z,101292.00
2019-05-11T22:41:19.550Z,101294.00
2019-05-11T22:43:49.271Z,101296.00
2019-05-11T22:46:18.993Z,101306.00
2019-05-11T22:48:49.063Z,101304.00
2019-05-11T22:51:19.225Z,101304.00
2019-05-11T22:53:50.513Z,101313.00
2019-05-11T22:56:20.316Z,101255.00
2019-05-11T22:58:50.114Z,101272.00
2019-05-11T23:01:19.915Z,101272.00
2019-05-11T23:03:49.733Z,101274.00
2019-05-11T23:06:19.455Z,101269.00
2019-05-11T23:08:53.857Z,101277.00
2019-05-11T23:11:20.855Z,101283.00
2019-05-11T23:13:50.555Z,101288.00
2019-05-11T23:16:20.602Z,101285.00
2019-05-11T23:18:50.304Z,101284.00
2019-05-11T23:21:19.994Z,101302.00
2019-05-11T23:23:49.727Z,101300.00
2019-05-11T23:26:19.413Z,101294.00
2019-05-11T23:28:49.123Z,101304.00
2019-05-11T23:31:19.123Z,101305.00
2019-05-11T23:33:48.854Z,101300.00
2019-05-11T23:36:18.611Z,101306.00
2019-05-11T23:38:48.312Z,101309.00
2019-05-11T23:41:24.733Z,101334.00
2019-05-11T23:43:49.507Z,101320.00
2019-05-11T23:46:19.208Z,101321.00
2019-05-11T23:48:48.916Z,101324.00
2019-05-11T23:51:18.632Z,101319.00
2019-05-11T23:53:48.337Z,101329.00
2019-05-11T23:56:18.031Z,101316.00
2019-05-11T23:58:48.264Z,101324.00
